createdAt,value
2018-07-06T00:00:50.506Z,53.40
2018-07-06T00:03:41.802Z,53.30
2018-07-06T00:06:32.854Z,53.40
2018-07-06T00:09:24.176Z,53.70
2018-07-06T00:12:15.449Z,53.80
2018-07-06T00:15:06.697Z,53.80
2018-07-06T00:17:58.009Z,53.60
2018-07-06T00:20:49.305Z,53.50
2018-07-06T00:23:40.398Z,53.50
2018-07-06T00:26:31.603Z,53.70
2018-07-06T00:29:22.729Z,53.80
2018-07-06T00:32:13.913Z,53.90
2018-07-06T00:35:05.341Z,54.00
2018-07-06T00:37:56.593Z,54.20
2018-07-06T00:40:47.566Z,54.50
2018-07-06T00:43:38.855Z,54.50
2018-07-06T00:46:30.095Z,54.50
2018-07-06T00:49:21.141Z,54.40
2018-07-06T00:54:57.691Z,54.60
2018-07-06T00:57:49.915Z,54.80
2018-07-06T01:00:40.998Z,54.50
2018-07-06T01:03:32.250Z,54.50
2018-07-06T01:11:55.234Z,54.00
2018-07-06T01:14:46.347Z,54.00
2018-07-06T01:17:37.620Z,54.20
2018-07-06T01:20:28.791Z,54.30
2018-07-06T01:23:19.883Z,54.20
2018-07-06T01:26:11.300Z,54.00
2018-07-06T01:29:02.469Z,53.60
2018-07-06T01:31:53.653Z,53.60
2018-07-06T01:34:44.697Z,53.30
2018-07-06T01:37:35.934Z,53.30
2018-07-06T01:40:26.959Z,52.80
2018-07-06T01:43:17.998Z,52.80
2018-07-06T01:46:09.057Z,52.60
2018-07-06T01:49:00.115Z,52.40
2018-07-06T01:51:51.362Z,52.20
2018-07-06T01:54:42.642Z,52.40
2018-07-06T01:57:34.019Z,52.40
2018-07-06T02:00:25.464Z,52.50
2018-07-06T02:03:16.571Z,52.80
2018-07-06T02:06:07.658Z,52.60
2018-07-06T02:08:58.789Z,52.50
2018-07-06T02:11:50.129Z,52.30
2018-07-06T02:14:41.530Z,52.30
2018-07-06T02:17:32.738Z,52.70
2018-07-06T02:20:23.773Z,53.00
2018-07-06T02:23:14.847Z,52.90
2018-07-06T02:26:06.023Z,52.70
2018-07-06T02:28:57.558Z,52.40
2018-07-06T02:31:48.711Z,53.00
2018-07-06T02:34:39.835Z,52.90
2018-07-06T02:37:30.958Z,52.80
2018-07-06T02:40:22.406Z,52.90
2018-07-06T02:43:13.487Z,53.70
2018-07-06T02:46:04.821Z,53.40
2018-07-06T02:48:56.106Z,52.80
2018-07-06T02:51:47.169Z,52.30
2018-07-06T02:54:38.220Z,52.00
2018-07-06T02:57:29.539Z,51.70
2018-07-06T03:00:20.723Z,51.80
2018-07-06T03:03:11.802Z,52.00
2018-07-06T03:08:48.405Z,51.00
2018-07-06T03:11:39.526Z,50.90
2018-07-06T03:17:16.323Z,51.40
2018-07-06T03:20:07.615Z,51.70
2018-07-06T03:22:58.872Z,51.90
2018-07-06T03:25:50.059Z,51.90
2018-07-06T03:28:41.551Z,52.00
2018-07-06T03:31:32.297Z,52.40
2018-07-06T03:34:23.411Z,52.70
2018-07-06T03:37:14.398Z,52.70
2018-07-06T03:40:05.673Z,52.50
2018-07-06T03:42:56.938Z,52.30
2018-07-06T03:45:48.044Z,52.20
2018-07-06T03:48:39.299Z,52.50
2018-07-06T03:51:30.519Z,52.60
2018-07-06T03:54:21.537Z,52.60
2018-07-06T03:57:12.828Z,52.70
2018-07-06T04:00:03.862Z,53.00
2018-07-06T04:02:54.936Z,53.10
2018-07-06T04:05:46.110Z,53.00
2018-07-06T04:08:37.307Z,52.80
2018-07-06T04:11:28.617Z,53.00
2018-07-06T04:14:19.670Z,53.50
2018-07-06T04:17:11.197Z,53.10
2018-07-06T04:20:02.239Z,53.30
2018-07-06T04:25:39.049Z,53.10
2018-07-06T04:28:30.331Z,52.90
2018-07-06T04:31:21.475Z,52.80
2018-07-06T04:34:12.667Z,52.80
2018-07-06T04:37:03.882Z,52.90
2018-07-06T04:39:55.022Z,53.50
2018-07-06T04:42:46.281Z,53.40
2018-07-06T04:45:37.282Z,53.10
2018-07-06T04:48:28.601Z,53.30
2018-07-06T04:51:19.572Z,53.10
2018-07-06T04:54:10.890Z,52.80
2018-07-06T04:59:47.680Z,52.90
2018-07-06T05:02:38.979Z,53.00
2018-07-06T05:05:30.291Z,53.20
2018-07-06T05:08:21.614Z,53.20
2018-07-06T05:11:12.775Z,52.80
2018-07-06T05:14:04.242Z,52.70
2018-07-06T05:16:55.518Z,52.00
2018-07-06T05:19:46.704Z,51.70
2018-07-06T05:22:37.919Z,52.00
2018-07-06T05:25:29.203Z,51.70
2018-07-06T05:28:20.426Z,51.60
2018-07-06T05:31:11.714Z,52.30
2018-07-06T05:34:02.725Z,52.90
2018-07-06T05:36:54.064Z,53.30
2018-07-06T05:39:45.388Z,53.10
2018-07-06T05:42:36.551Z,53.00
2018-07-06T05:45:27.847Z,52.30
2018-07-06T05:48:19.222Z,52.00
2018-07-06T05:51:10.449Z,51.30
2018-07-06T05:54:01.597Z,50.10
2018-07-06T05:56:52.874Z,49.70
2018-07-06T05:59:44.073Z,49.30
2018-07-06T06:02:35.386Z,49.20
2018-07-06T06:05:26.647Z,48.80
2018-07-06T06:07:59.216Z,48.60
2018-07-06T06:10:26.982Z,48.10
2018-07-06T06:12:54.683Z,48.30
2018-07-06T06:17:50.162Z,47.20
2018-07-06T06:20:17.873Z,47.10
2018-07-06T06:22:45.567Z,46.80
2018-07-06T06:25:13.441Z,45.90
2018-07-06T06:27:41.170Z,46.00
2018-07-06T06:30:09.127Z,46.50
2018-07-06T06:32:37.172Z,46.20
2018-07-06T06:35:05.016Z,46.50
2018-07-06T06:37:33.018Z,46.80
2018-07-06T06:40:00.765Z,46.80
2018-07-06T06:42:28.530Z,46.70
2018-07-06T06:47:26.275Z,45.80
2018-07-06T06:49:53.981Z,45.10
2018-07-06T06:54:49.591Z,43.90
2018-07-06T06:57:17.325Z,43.80
2018-07-06T06:59:45.067Z,42.90
2018-07-06T07:02:12.827Z,42.80
2018-07-06T07:04:40.575Z,42.30
2018-07-06T07:07:08.267Z,42.40
2018-07-06T07:12:03.755Z,42.00
2018-07-06T07:14:31.478Z,41.60
2018-07-06T07:16:59.506Z,41.60
2018-07-06T07:19:27.255Z,41.60
2018-07-06T07:21:55.812Z,41.40
2018-07-06T07:24:23.610Z,40.90
2018-07-06T07:26:51.359Z,40.70
2018-07-06T07:29:20.073Z,41.20
2018-07-06T07:31:47.813Z,41.90
2018-07-06T07:34:15.798Z,41.70
2018-07-06T07:36:43.574Z,41.40
2018-07-06T07:39:11.287Z,42.40
2018-07-06T07:41:39.040Z,40.70
2018-07-06T07:44:06.829Z,40.40
2018-07-06T07:46:34.590Z,39.30
2018-07-06T07:49:02.294Z,39.00
2018-07-06T07:52:12.602Z,38.20
2018-07-06T07:54:49.262Z,37.90
2018-07-06T07:57:17.378Z,38.30
2018-07-06T07:59:46.970Z,38.20
2018-07-06T08:02:16.253Z,37.90
2018-07-06T08:04:44.479Z,38.70
2018-07-06T08:07:12.204Z,37.10
2018-07-06T08:09:39.982Z,36.40
2018-07-06T08:12:07.737Z,35.80
2018-07-06T08:14:36.021Z,36.60
2018-07-06T08:17:03.991Z,34.80
2018-07-06T08:19:31.719Z,33.90
2018-07-06T08:21:59.923Z,33.80
2018-07-06T08:24:27.644Z,33.70
2018-07-06T08:29:23.073Z,33.40
2018-07-06T08:31:50.792Z,33.40
2018-07-06T08:34:35.825Z,33.30
2018-07-06T08:37:50.873Z,33.10
2018-07-06T08:40:19.421Z,33.50
2018-07-06T08:42:50.084Z,35.00
2018-07-06T08:45:17.843Z,34.10
2018-07-06T08:47:46.899Z,34.40
2018-07-06T08:50:14.742Z,34.60
2018-07-06T08:52:43.663Z,34.30
2018-07-06T08:55:11.397Z,34.20
2018-07-06T08:57:40.115Z,34.00
2018-07-06T09:00:09.319Z,33.70
2018-07-06T09:02:37.098Z,33.40
2018-07-06T09:05:05.523Z,33.80
2018-07-06T09:10:01.523Z,33.10
2018-07-06T09:12:29.221Z,33.60
2018-07-06T09:14:57.462Z,33.90
2018-07-06T09:17:25.221Z,34.50
2018-07-06T09:19:54.015Z,33.90
2018-07-06T09:22:21.630Z,32.90
2018-07-06T09:27:18.162Z,32.40
2018-07-06T09:29:45.853Z,32.20
2018-07-06T09:32:13.539Z,32.10
2018-07-06T09:34:41.562Z,32.30
2018-07-06T09:37:09.277Z,33.50
2018-07-06T09:39:37.601Z,34.20
2018-07-06T09:42:05.298Z,34.10
2018-07-06T09:44:32.999Z,33.20
2018-07-06T09:47:00.754Z,33.20
2018-07-06T09:49:28.425Z,33.60
2018-07-06T09:51:56.106Z,32.70
2018-07-06T09:56:51.524Z,33.10
2018-07-06T09:59:19.219Z,33.00
2018-07-06T10:01:46.894Z,31.90
2018-07-06T10:04:14.634Z,32.10
2018-07-06T10:06:42.258Z,31.50
2018-07-06T10:09:10.535Z,31.20
2018-07-06T10:11:38.193Z,30.50
2018-07-06T10:14:05.905Z,29.70
2018-07-06T10:16:33.604Z,29.60
2018-07-06T10:19:01.306Z,29.80
2018-07-06T10:21:28.985Z,29.70
2018-07-06T10:23:56.742Z,30.20
2018-07-06T10:26:24.603Z,31.10
2018-07-06T10:29:02.047Z,29.90
2018-07-06T10:32:26.838Z,29.30
2018-07-06T10:34:54.726Z,29.50
2018-07-06T10:37:22.658Z,28.00
2018-07-06T10:39:51.079Z,28.70
2018-07-06T10:42:20.248Z,27.70
2018-07-06T10:44:47.975Z,27.60
2018-07-06T10:47:15.685Z,27.80
2018-07-06T10:52:12.674Z,27.00
2018-07-06T10:54:42.089Z,26.50
2018-07-06T10:57:09.820Z,26.50
2018-07-06T10:59:37.535Z,26.30
2018-07-06T11:02:05.356Z,26.20
2018-07-06T11:04:33.115Z,26.20
2018-07-06T11:07:00.784Z,25.10
2018-07-06T11:09:28.463Z,24.70
2018-07-06T11:11:56.239Z,24.30
2018-07-06T11:14:24.157Z,23.80
2018-07-06T11:16:53.369Z,23.80
2018-07-06T11:19:21.050Z,23.50
2018-07-06T11:21:48.737Z,23.40
2018-07-06T11:24:16.524Z,23.70
2018-07-06T11:26:44.229Z,23.70
2018-07-06T11:29:11.926Z,23.40
2018-07-06T11:31:39.613Z,22.60
2018-07-06T11:34:07.980Z,22.50
2018-07-06T11:36:35.863Z,22.20
2018-07-06T11:39:04.803Z,22.30
2018-07-06T11:41:32.675Z,22.20
2018-07-06T11:44:00.396Z,22.10
2018-07-06T11:46:28.072Z,21.60
2018-07-06T11:48:55.766Z,21.40
2018-07-06T11:51:23.474Z,21.50
2018-07-06T11:53:51.151Z,21.50
2018-07-06T11:56:18.902Z,21.30
2018-07-06T11:58:46.596Z,21.10
2018-07-06T12:01:14.463Z,20.90
2018-07-06T12:03:43.734Z,20.60
2018-07-06T12:06:12.226Z,20.70
2018-07-06T12:08:41.250Z,20.10
2018-07-06T12:13:37.044Z,20.00
2018-07-06T12:16:05.660Z,20.10
2018-07-06T12:18:34.246Z,20.20
2018-07-06T12:21:02.091Z,20.60
2018-07-06T12:23:29.749Z,20.40
2018-07-06T12:25:57.414Z,20.10
2018-07-06T12:28:25.182Z,19.70
2018-07-06T12:30:52.887Z,19.20
2018-07-06T12:33:20.612Z,18.50
2018-07-06T12:35:48.749Z,18.60
2018-07-06T12:38:16.524Z,18.60
2018-07-06T12:40:44.442Z,18.90
2018-07-06T12:43:12.242Z,18.80
2018-07-06T12:45:40.047Z,19.10
2018-07-06T12:48:07.949Z,18.50
2018-07-06T12:50:36.829Z,18.60
2018-07-06T12:55:34.921Z,18.50
2018-07-06T12:58:03.060Z,18.70
2018-07-06T13:00:31.955Z,18.60
2018-07-06T13:03:00.572Z,18.20
2018-07-06T13:05:28.391Z,18.30
2018-07-06T13:07:56.281Z,18.70
2018-07-06T13:10:24.027Z,19.00
2018-07-06T13:15:19.438Z,18.60
2018-07-06T13:17:47.171Z,18.60
2018-07-06T13:20:14.979Z,18.80
2018-07-06T13:22:42.711Z,19.10
2018-07-06T13:25:10.565Z,19.30
2018-07-06T13:27:38.335Z,18.90
2018-07-06T13:30:06.053Z,18.50
2018-07-06T13:32:34.938Z,18.80
2018-07-06T13:35:02.693Z,19.10
2018-07-06T13:37:30.445Z,19.00
2018-07-06T13:39:58.499Z,19.00
2018-07-06T13:42:26.250Z,19.10
2018-07-06T13:44:54.195Z,19.30
2018-07-06T13:47:21.953Z,19.70
2018-07-06T13:49:49.812Z,19.70
2018-07-06T13:52:17.550Z,19.70
2018-07-06T13:54:45.476Z,19.30
2018-07-06T13:57:13.229Z,19.60
2018-07-06T13:59:40.948Z,19.90
2018-07-06T14:02:08.991Z,20.10
2018-07-06T14:04:36.715Z,20.30
2018-07-06T14:07:04.654Z,20.20
2018-07-06T14:09:32.583Z,20.10
2018-07-06T14:14:28.067Z,19.60
2018-07-06T14:16:55.873Z,19.50
2018-07-06T14:21:52.219Z,18.70
2018-07-06T14:24:19.924Z,18.70
2018-07-06T14:26:47.638Z,18.70
2018-07-06T14:29:15.420Z,18.40
2018-07-06T14:31:43.139Z,18.40
2018-07-06T14:34:10.890Z,18.60
2018-07-06T14:39:07.260Z,18.20
2018-07-06T14:41:35.001Z,17.60
2018-07-06T14:44:02.787Z,17.60
2018-07-06T14:46:30.549Z,17.90
2018-07-06T14:48:58.241Z,17.80
2018-07-06T14:51:26.800Z,17.90
2018-07-06T14:53:54.590Z,17.80
2018-07-06T14:56:22.953Z,17.70
2018-07-06T14:58:50.706Z,17.70
2018-07-06T15:01:18.403Z,17.80
2018-07-06T15:03:46.178Z,17.50
2018-07-06T15:06:13.828Z,17.60
2018-07-06T15:08:41.606Z,18.00
2018-07-06T15:11:09.274Z,18.40
2018-07-06T15:13:36.977Z,18.20
2018-07-06T15:16:05.259Z,17.70
2018-07-06T15:18:32.881Z,17.80
2018-07-06T15:21:00.603Z,17.70
2018-07-06T15:23:28.279Z,17.60
2018-07-06T15:25:56.006Z,17.50
2018-07-06T15:28:23.695Z,17.70
2018-07-06T15:30:51.379Z,18.20
2018-07-06T15:33:19.070Z,18.50
2018-07-06T15:35:46.725Z,18.50
2018-07-06T15:38:14.415Z,18.80
2018-07-06T15:40:42.088Z,18.50
2018-07-06T15:43:09.854Z,18.90
2018-07-06T15:45:37.520Z,18.90
2018-07-06T15:48:05.180Z,18.80
2018-07-06T15:50:32.891Z,18.90
2018-07-06T15:53:00.570Z,19.00
2018-07-06T15:55:28.292Z,19.10
2018-07-06T15:57:55.956Z,19.10
2018-07-06T16:00:23.636Z,19.10
2018-07-06T16:05:19.073Z,19.20
2018-07-06T16:07:46.814Z,19.20
2018-07-06T16:10:14.488Z,19.70
2018-07-06T16:12:42.160Z,20.00
2018-07-06T16:15:09.866Z,20.00
2018-07-06T16:17:37.546Z,20.60
2018-07-06T16:20:05.299Z,20.90
2018-07-06T16:22:32.970Z,21.30
2018-07-06T16:25:00.653Z,21.50
2018-07-06T16:27:29.324Z,21.50
2018-07-06T16:29:57.137Z,21.30
2018-07-06T16:32:26.839Z,21.30
2018-07-06T16:34:56.775Z,21.50
2018-07-06T16:37:25.628Z,21.50
2018-07-06T16:39:53.426Z,21.90
2018-07-06T16:42:21.135Z,22.10
2018-07-06T16:44:48.974Z,22.10
2018-07-06T16:47:16.698Z,22.50
2018-07-06T16:49:44.365Z,22.80
2018-07-06T16:52:12.700Z,22.70
2018-07-06T16:54:40.372Z,22.80
2018-07-06T16:57:08.069Z,23.00
2018-07-06T16:59:35.746Z,22.80
2018-07-06T17:02:03.439Z,22.60
2018-07-06T17:04:31.124Z,22.60
2018-07-06T17:06:59.950Z,22.60
2018-07-06T17:09:27.755Z,22.70
2018-07-06T17:11:55.474Z,22.80
2018-07-06T17:14:23.172Z,22.60
2018-07-06T17:16:50.863Z,22.70
2018-07-06T17:19:19.899Z,22.30
2018-07-06T17:21:48.961Z,22.20
2018-07-06T17:24:16.625Z,22.30
2018-07-06T17:26:44.287Z,22.20
2018-07-06T17:29:11.955Z,22.40
2018-07-06T17:31:39.648Z,22.50
2018-07-06T17:36:35.110Z,22.90
2018-07-06T17:39:03.333Z,23.20
2018-07-06T17:41:31.004Z,23.40
2018-07-06T17:43:58.723Z,23.60
2018-07-06T17:46:26.789Z,23.60
2018-07-06T17:48:55.207Z,23.70
2018-07-06T17:51:22.879Z,23.60
2018-07-06T17:53:52.363Z,23.90
2018-07-06T17:56:20.105Z,23.80
2018-07-06T17:58:47.751Z,23.80
2018-07-06T18:01:16.124Z,23.70
2018-07-06T18:03:43.828Z,23.60
2018-07-06T18:08:39.263Z,23.60
2018-07-06T18:11:06.948Z,23.70
2018-07-06T18:13:34.662Z,23.80
2018-07-06T18:16:02.419Z,24.00
2018-07-06T18:18:30.197Z,23.90
2018-07-06T18:20:58.078Z,23.70
2018-07-06T18:23:26.865Z,23.70
2018-07-06T18:25:54.541Z,23.80
2018-07-06T18:28:22.206Z,24.20
2018-07-06T18:30:49.912Z,24.50
2018-07-06T18:33:17.833Z,24.70
2018-07-06T18:35:45.518Z,24.60
2018-07-06T18:38:13.215Z,24.50
2018-07-06T18:40:42.415Z,24.70
2018-07-06T18:43:10.095Z,24.60
2018-07-06T18:45:38.596Z,24.20
2018-07-06T18:48:06.380Z,24.00
2018-07-06T18:50:34.669Z,23.10
2018-07-06T18:53:02.388Z,23.10
2018-07-06T18:57:57.842Z,22.30
2018-07-06T19:00:25.927Z,22.60
2018-07-06T19:02:53.858Z,22.90
2018-07-06T19:05:21.590Z,23.20
2018-07-06T19:07:49.332Z,23.70
2018-07-06T19:10:17.057Z,24.00
2018-07-06T19:12:44.862Z,24.00
2018-07-06T19:15:14.294Z,24.40
2018-07-06T19:17:42.364Z,24.40
2018-07-06T19:20:15.697Z,24.90
2018-07-06T19:22:43.605Z,25.50
2018-07-06T19:25:11.498Z,26.00
2018-07-06T19:27:39.211Z,26.60
2018-07-06T19:30:07.161Z,26.80
2018-07-06T19:32:35.114Z,27.70
2018-07-06T19:35:06.387Z,27.60
2018-07-06T19:37:35.028Z,27.90
2018-07-06T19:40:02.767Z,27.90
2018-07-06T19:42:30.448Z,28.00
2018-07-06T19:44:58.139Z,27.90
2018-07-06T19:47:25.825Z,28.00
2018-07-06T19:49:53.519Z,28.00
2018-07-06T19:52:21.344Z,28.00
2018-07-06T19:54:49.015Z,28.00
2018-07-06T19:57:16.686Z,28.00
2018-07-06T19:59:45.115Z,28.20
2018-07-06T20:02:12.838Z,28.20
2018-07-06T20:04:40.517Z,28.50
2018-07-06T20:07:08.175Z,28.50
2018-07-06T20:09:35.846Z,28.90
2018-07-06T20:12:03.550Z,29.20
2018-07-06T20:14:31.225Z,29.00
2018-07-06T20:16:59.507Z,29.40
2018-07-06T20:19:27.158Z,29.30
2018-07-06T20:21:54.835Z,29.50
2018-07-06T20:24:22.482Z,29.70
2018-07-06T20:26:50.148Z,30.00
2018-07-06T20:29:17.859Z,30.90
2018-07-06T20:31:45.551Z,31.40
2018-07-06T20:34:13.221Z,32.20
2018-07-06T20:36:41.019Z,32.40
2018-07-06T20:39:08.601Z,32.60
2018-07-06T20:41:37.851Z,33.20
2018-07-06T20:44:05.574Z,33.50
2018-07-06T20:46:33.322Z,33.90
2018-07-06T20:49:01.035Z,34.20
2018-07-06T20:53:57.424Z,35.10
2018-07-06T20:56:27.581Z,35.60
2018-07-06T20:58:55.318Z,36.00
2018-07-06T21:01:24.094Z,35.90
2018-07-06T21:03:52.523Z,36.40
2018-07-06T21:06:20.516Z,36.70
2018-07-06T21:13:43.665Z,37.00
2018-07-06T21:16:11.367Z,37.40
2018-07-06T21:18:39.089Z,37.70
2018-07-06T21:21:06.806Z,37.80
2018-07-06T21:23:34.469Z,38.50
2018-07-06T21:26:02.211Z,38.40
2018-07-06T21:28:29.881Z,38.70
2018-07-06T21:30:57.521Z,37.90
2018-07-06T21:33:25.174Z,37.70
2018-07-06T21:35:52.844Z,38.00
2018-07-06T21:38:20.492Z,38.00
2018-07-06T21:40:48.164Z,38.10
2018-07-06T21:43:15.903Z,37.90
2018-07-06T21:45:43.675Z,37.70
2018-07-06T21:48:11.376Z,37.60
2018-07-06T21:50:39.079Z,37.80
2018-07-06T21:53:06.796Z,38.50
2018-07-06T21:55:34.455Z,37.80
2018-07-06T21:58:02.155Z,37.80
2018-07-06T22:00:39.274Z,38.00
2018-07-06T22:03:08.775Z,37.60
2018-07-06T22:05:37.335Z,37.00
2018-07-06T22:08:05.963Z,37.00
2018-07-06T22:10:34.706Z,37.60
2018-07-06T22:13:02.628Z,37.40
2018-07-06T22:15:38.802Z,37.20
2018-07-06T22:18:06.529Z,36.90
2018-07-06T22:20:34.219Z,37.10
2018-07-06T22:23:01.936Z,37.10
2018-07-06T22:25:29.669Z,37.90
2018-07-06T22:27:57.363Z,38.40
2018-07-06T22:30:25.044Z,38.50
2018-07-06T22:32:52.767Z,38.60
2018-07-06T22:35:20.461Z,39.10
2018-07-06T22:37:48.132Z,39.20
2018-07-06T22:40:16.170Z,39.00
2018-07-06T22:42:44.047Z,39.10
2018-07-06T22:45:12.122Z,39.00
2018-07-06T22:47:39.970Z,39.20
2018-07-06T22:50:07.698Z,39.00
2018-07-06T22:55:03.321Z,39.10
2018-07-06T22:57:34.034Z,39.10
2018-07-06T23:00:01.738Z,39.00
2018-07-06T23:02:29.679Z,39.20
2018-07-06T23:04:57.375Z,39.10
2018-07-06T23:07:25.056Z,39.30
2018-07-06T23:12:20.967Z,39.70
2018-07-06T23:14:48.658Z,38.90
2018-07-06T23:19:44.075Z,38.90
2018-07-06T23:22:14.713Z,38.90
2018-07-06T23:24:42.378Z,38.70
2018-07-06T23:27:10.254Z,38.80
2018-07-06T23:29:37.983Z,39.10
2018-07-06T23:32:05.651Z,39.00
2018-07-06T23:34:33.372Z,39.40
2018-07-06T23:37:01.042Z,39.40
2018-07-06T23:39:28.691Z,39.20
2018-07-06T23:41:56.388Z,39.20
2018-07-06T23:46:51.761Z,39.30
2018-07-06T23:49:19.448Z,39.60
2018-07-06T23:51:47.123Z,39.20
2018-07-06T23:54:14.888Z,39.60
2018-07-06T23:56:42.634Z,40.10
2018-07-06T23:59:10.598Z,39.40
